Time;durP1;ratioP1;P1;durP2;ratioP2;P2;SDS_P1;SDS_P2;PMS_P1;PMS_P2;Temp;Humidity;BMP_temperature;BMP_pressure;BME280_temperature;BME280_humidity;BME280_pressure;Samples;Min_cycle;Max_cycle;Signal;HPM_P1;HPM_P2
2022/03/01 00:01:13;;;;;;;13.23;8.43;;;3.00;90.10;;;;;;5032130;28;20184;-78
2022/03/01 00:03:39;;;;;;;15.18;8.65;;;3.00;90.10;;;;;;5031339;28;20021;-79
2022/03/01 00:06:04;;;;;;;12.98;8.30;;;3.00;90.10;;;;;;5031420;28;20032;-79
2022/03/01 00:08:30;;;;;;;17.05;9.77;;;3.10;90.10;;;;;;5031078;28;20024;-78
2022/03/01 00:10:55;;;;;;;16.63;9.10;;;3.00;90.30;;;;;;5033775;28;20104;-78
2022/03/01 00:13:21;;;;;;;13.75;8.80;;;3.00;90.40;;;;;;5035434;28;20025;-78
2022/03/01 00:15:46;;;;;;;12.27;8.95;;;2.90;90.40;;;;;;5034713;28;20021;-80
2022/03/01 00:18:12;;;;;;;12.93;7.45;;;2.90;90.70;;;;;;5033388;28;20068;-79
2022/03/01 00:20:37;;;;;;;13.43;9.10;;;2.80;91.10;;;;;;5030564;28;20485;-78
2022/03/01 00:23:03;;;;;;;12.60;8.02;;;2.80;91.10;;;;;;5028505;28;20022;-79
2022/03/01 00:25:28;;;;;;;13.07;8.75;;;2.70;91.30;;;;;;5032306;28;20028;-78
2022/03/01 00:27:54;;;;;;;14.32;9.70;;;2.60;91.50;;;;;;5043890;28;20132;-78
2022/03/01 00:30:20;;;;;;;12.27;8.80;;;2.40;92.00;;;;;;5033350;28;20030;-77
2022/03/01 00:32:45;;;;;;;11.77;8.40;;;2.30;92.30;;;;;;5036042;28;20021;-77
2022/03/01 00:35:11;;;;;;;17.25;10.25;;;2.20;92.50;;;;;;5033489;28;20055;-79
2022/03/01 00:37:36;;;;;;;14.40;9.23;;;2.20;92.70;;;;;;5038104;28;20037;-79
2022/03/01 00:40:04;;;;;;;16.27;10.27;;;2.10;93.10;;;;;;5033135;28;20045;-77
2022/03/01 00:42:30;;;;;;;13.27;8.95;;;2.10;93.60;;;;;;5035971;28;20025;-77
2022/03/01 00:44:55;;;;;;;14.48;9.82;;;1.90;93.90;;;;;;5034648;28;20045;-78
2022/03/01 00:47:21;;;;;;;15.93;10.27;;;1.70;94.60;;;;;;5058932;28;20021;-78
2022/03/01 00:49:46;;;;;;;16.05;9.77;;;1.60;94.80;;;;;;5041949;28;20020;-77
2022/03/01 00:52:12;;;;;;;14.40;9.52;;;1.60;95.30;;;;;;5050885;28;20022;-75
2022/03/01 00:54:37;;;;;;;14.60;9.77;;;1.60;95.90;;;;;;5052597;28;20041;-77
2022/03/01 00:57:03;;;;;;;18.38;11.15;;;1.40;96.30;;;;;;5057125;28;20014;-83
2022/03/01 00:59:29;;;;;;;16.05;10.18;;;1.40;96.70;;;;;;5059630;28;20006;-84
2022/03/01 01:01:54;;;;;;;14.00;9.93;;;1.50;96.70;;;;;;5060177;28;20025;-85
2022/03/01 01:04:20;;;;;;;15.82;10.70;;;1.50;96.90;;;;;;5060453;28;20092;-86
2022/03/01 01:06:46;;;;;;;18.52;11.93;;;1.50;96.80;;;;;;5060461;28;20052;-84
2022/03/01 01:09:13;;;;;;;20.20;10.00;;;1.50;97.10;;;;;;5050154;28;20041;-81
2022/03/01 01:11:42;;;;;;;18.58;11.05;;;1.40;97.40;;;;;;5053248;28;20005;-81
2022/03/01 01:14:08;;;;;;;19.05;11.15;;;1.30;97.80;;;;;;5058702;28;20045;-83
2022/03/01 01:16:34;;;;;;;19.10;10.82;;;1.10;98.40;;;;;;5053379;28;21009;-76
2022/03/01 01:18:59;;;;;;;14.57;10.18;;;1.10;98.80;;;;;;5047615;28;20038;-76
2022/03/01 01:22:39;;;;;;;15.98;11.10;;;1.20;99.10;;;;;;5053752;28;20077;-76
2022/03/01 01:24:10;;;;;;;17.15;10.98;;;1.10;98.70;;;;;;5053433;28;20030;-76
2022/03/01 01:26:36;;;;;;;17.30;10.50;;;1.00;99.10;;;;;;5055178;28;20036;-76
2022/03/01 01:29:02;;;;;;;17.23;10.95;;;1.00;99.70;;;;;;5057673;28;20092;-76
2022/03/01 01:31:27;;;;;;;15.85;9.43;;;1.10;99.60;;;;;;5052383;28;20025;-76
2022/03/01 01:33:53;;;;;;;16.98;10.43;;;1.10;99.90;;;;;;5043861;28;20030;-76
2022/03/01 01:36:18;;;;;;;15.85;10.20;;;1.10;99.90;;;;;;5034031;28;20027;-76
2022/03/01 01:38:44;;;;;;;17.10;10.98;;;1.20;99.90;;;;;;5034774;28;20134;-77
2022/03/01 01:41:09;;;;;;;14.85;10.77;;;1.10;99.90;;;;;;5034266;28;20029;-77
2022/03/01 01:43:35;;;;;;;14.38;10.02;;;1.00;99.90;;;;;;5047641;28;20025;-77
2022/03/01 01:46:00;;;;;;;15.95;10.30;;;1.10;99.90;;;;;;5036838;28;20033;-76
2022/03/01 01:48:26;;;;;;;14.73;10.20;;;1.00;99.90;;;;;;5035355;28;20032;-75
2022/03/01 01:50:52;;;;;;;16.35;11.68;;;1.10;99.90;;;;;;5027129;28;20083;-76
2022/03/01 01:53:19;;;;;;;16.67;10.32;;;1.10;99.90;;;;;;5034521;28;20025;-77
2022/03/01 01:55:45;;;;;;;15.38;9.52;;;1.00;99.90;;;;;;5032967;28;20060;-77
2022/03/01 01:58:10;;;;;;;17.30;10.07;;;0.80;99.90;;;;;;5034062;28;20049;-77
2022/03/01 02:00:36;;;;;;;14.80;9.70;;;0.80;99.90;;;;;;5030469;28;20057;-76
2022/03/01 02:03:02;;;;;;;14.68;10.18;;;0.90;99.90;;;;;;5033247;28;20025;-76
2022/03/01 02:05:28;;;;;;;13.57;9.43;;;0.90;99.90;;;;;;5033447;28;20021;-77
2022/03/01 02:07:55;;;;;;;14.52;8.65;;;1.00;99.90;;;;;;5031363;28;20041;-76
2022/03/01 02:10:21;;;;;;;17.15;10.18;;;1.00;99.90;;;;;;5033973;28;20025;-77
2022/03/01 02:12:47;;;;;;;14.23;9.68;;;0.90;99.90;;;;;;5034033;28;20100;-76
2022/03/01 02:15:15;;;;;;;17.08;9.80;;;0.90;99.90;;;;;;5032362;28;20072;-76
2022/03/01 02:17:42;;;;;;;18.27;10.40;;;0.90;99.90;;;;;;5033082;28;20030;-77
2022/03/01 02:20:12;;;;;;;13.82;9.23;;;0.80;99.90;;;;;;5033380;28;20486;-77
2022/03/01 02:22:38;;;;;;;14.10;9.45;;;0.70;99.90;;;;;;5033727;28;20026;-76
2022/03/01 02:25:05;;;;;;;14.65;9.82;;;0.80;99.90;;;;;;5034184;28;20097;-77
2022/03/01 02:27:30;;;;;;;16.58;9.50;;;0.70;99.90;;;;;;5032968;28;20025;-77
2022/03/01 02:29:56;;;;;;;15.95;9.50;;;0.80;99.90;;;;;;5033756;28;20033;-77
2022/03/01 02:32:21;;;;;;;13.88;9.30;;;0.80;99.90;;;;;;5033235;28;20026;-77
2022/03/01 02:34:48;;;;;;;17.42;9.90;;;0.80;99.90;;;;;;5033293;28;20536;-77
2022/03/01 02:37:14;;;;;;;12.00;8.93;;;0.70;99.90;;;;;;5031537;28;20052;-76
2022/03/01 02:39:39;;;;;;;15.40;9.82;;;0.70;99.90;;;;;;5031198;28;20450;-77
2022/03/01 02:42:05;;;;;;;13.65;8.95;;;0.60;99.90;;;;;;5031988;28;20120;-77
2022/03/01 02:44:31;;;;;;;13.23;8.65;;;0.60;99.90;;;;;;5021913;28;20093;-77
2022/03/01 02:46:56;;;;;;;17.00;9.68;;;0.60;99.90;;;;;;5030402;28;20028;-77
2022/03/01 02:49:23;;;;;;;17.15;10.40;;;0.60;99.90;;;;;;5031302;28;20017;-77
2022/03/01 02:51:48;;;;;;;19.17;10.38;;;0.60;99.90;;;;;;5032289;28;20029;-77
2022/03/01 02:54:14;;;;;;;19.63;10.27;;;0.50;99.90;;;;;;5031464;28;20028;-76
2022/03/01 02:56:39;;;;;;;14.85;9.85;;;0.50;99.90;;;;;;5028493;28;20105;-77
2022/03/01 02:59:05;;;;;;;16.17;10.85;;;0.50;99.90;;;;;;5031266;28;20033;-76
2022/03/01 03:01:31;;;;;;;15.60;10.18;;;0.40;99.90;;;;;;5033394;28;20034;-78
2022/03/01 03:03:57;;;;;;;15.93;10.52;;;0.40;99.90;;;;;;5032500;28;20098;-76
2022/03/01 03:06:23;;;;;;;13.90;9.45;;;0.30;99.90;;;;;;5032827;28;20032;-76
2022/03/01 03:08:48;;;;;;;16.63;9.93;;;0.40;99.90;;;;;;5032502;28;20097;-77
2022/03/01 03:11:14;;;;;;;14.63;9.27;;;0.70;99.90;;;;;;5033101;28;20025;-76
2022/03/01 03:13:40;;;;;;;14.18;9.45;;;0.60;99.90;;;;;;5032325;28;20032;-77
2022/03/01 03:16:07;;;;;;;14.25;10.60;;;0.50;99.90;;;;;;5023684;28;20025;-77
2022/03/01 03:18:33;;;;;;;17.70;10.77;;;0.40;99.90;;;;;;5031902;28;20021;-76
2022/03/01 03:20:59;;;;;;;18.48;9.68;;;0.30;99.90;;;;;;5032208;28;20029;-77
2022/03/01 03:23:24;;;;;;;15.30;10.18;;;0.20;99.90;;;;;;5030326;28;20017;-77
2022/03/01 03:25:50;;;;;;;18.88;11.45;;;0.10;99.90;;;;;;5024618;28;20021;-77
2022/03/01 03:28:16;;;;;;;16.40;10.38;;;0.00;99.90;;;;;;5046085;28;20467;-75
2022/03/01 03:30:42;;;;;;;15.48;10.02;;;0.00;99.90;;;;;;5021855;28;20188;-77
2022/03/01 03:33:07;;;;;;;14.90;11.10;;;0.00;99.90;;;;;;5025910;28;20056;-77
2022/03/01 03:35:33;;;;;;;15.73;10.00;;;0.00;99.90;;;;;;5032248;28;20025;-76
2022/03/01 03:37:59;;;;;;;15.45;10.80;;;0.10;99.90;;;;;;5031977;28;20135;-76
2022/03/01 03:40:24;;;;;;;16.30;11.02;;;0.20;99.90;;;;;;5031101;28;20026;-76
2022/03/01 03:42:50;;;;;;;15.75;9.95;;;0.20;99.90;;;;;;5033274;28;20017;-77
2022/03/01 03:45:15;;;;;;;16.05;9.60;;;0.10;99.90;;;;;;5034592;28;20030;-77
2022/03/01 03:47:42;;;;;;;15.32;10.23;;;0.30;99.90;;;;;;5034173;28;20064;-77
2022/03/01 03:50:09;;;;;;;16.65;9.85;;;0.50;99.90;;;;;;5033411;28;20068;-76
2022/03/01 03:52:36;;;;;;;16.70;10.77;;;0.60;99.90;;;;;;5032277;28;20049;-77
2022/03/01 03:55:03;;;;;;;13.82;10.68;;;0.60;99.90;;;;;;5015021;28;20026;-76
2022/03/01 03:57:28;;;;;;;24.23;10.52;;;0.50;99.90;;;;;;5032151;28;20093;-76
2022/03/01 03:59:54;;;;;;;14.90;10.50;;;0.50;99.90;;;;;;5031995;28;20123;-77
2022/03/01 04:02:19;;;;;;;19.42;10.82;;;0.50;99.90;;;;;;5031393;28;20025;-76
2022/03/01 04:04:45;;;;;;;14.40;10.52;;;0.40;99.90;;;;;;5035578;28;20032;-76
2022/03/01 04:07:11;;;;;;;16.50;9.80;;;0.30;99.90;;;;;;5036077;28;20036;-77
2022/03/01 04:09:36;;;;;;;20.00;10.02;;;0.10;99.90;;;;;;5034336;28;20033;-76
2022/03/01 04:12:03;;;;;;;20.60;10.93;;;0.00;99.90;;;;;;5050594;28;20075;-77
2022/03/01 04:14:29;;;;;;;16.38;9.88;;;-0.10;99.90;;;;;;5035674;28;20032;-76
2022/03/01 04:16:56;;;;;;;16.65;10.63;;;-0.20;99.90;;;;;;5035181;28;20033;-77
2022/03/01 04:19:22;;;;;;;17.45;10.38;;;-0.30;99.90;;;;;;5027167;28;20060;-78
2022/03/01 04:21:48;;;;;;;17.45;10.95;;;-0.40;99.90;;;;;;5034345;28;20044;-77
2022/03/01 04:24:14;;;;;;;19.80;11.10;;;-0.40;99.90;;;;;;5035766;28;20452;-77
2022/03/01 04:26:41;;;;;;;17.52;10.63;;;-0.40;99.90;;;;;;5035936;28;20607;-78
2022/03/01 04:29:06;;;;;;;16.90;10.45;;;-0.50;99.90;;;;;;5034026;28;20120;-76
2022/03/01 04:31:32;;;;;;;15.85;10.30;;;-0.50;99.90;;;;;;5036387;28;20021;-77
2022/03/01 04:33:57;;;;;;;16.90;11.65;;;-0.50;99.90;;;;;;5034759;28;20497;-76
2022/03/01 04:36:23;;;;;;;16.10;10.57;;;-0.60;99.90;;;;;;5035257;28;20071;-77
2022/03/01 04:38:49;;;;;;;20.55;12.35;;;-0.60;99.90;;;;;;5035600;28;20060;-76
2022/03/01 04:41:14;;;;;;;27.17;11.85;;;-0.70;99.90;;;;;;5050372;28;20022;-77
2022/03/01 04:43:40;;;;;;;18.38;12.23;;;-0.80;99.90;;;;;;5035135;28;20018;-76
2022/03/01 04:46:06;;;;;;;17.40;11.55;;;-0.80;99.90;;;;;;5033656;28;20051;-77
2022/03/01 04:48:31;;;;;;;20.60;10.25;;;-0.70;99.90;;;;;;5026929;28;20024;-77
2022/03/01 04:50:57;;;;;;;22.38;12.15;;;-0.70;99.90;;;;;;5034771;28;20029;-77
2022/03/01 04:53:23;;;;;;;20.75;11.10;;;-0.70;99.90;;;;;;5035475;28;20026;-77
2022/03/01 04:55:49;;;;;;;23.00;11.32;;;-0.70;99.90;;;;;;5033443;28;20103;-76
2022/03/01 04:58:15;;;;;;;14.75;9.88;;;-0.70;99.90;;;;;;5033279;28;20048;-76
2022/03/01 05:00:41;;;;;;;18.30;11.77;;;-0.80;99.90;;;;;;5035156;28;20026;-76
2022/03/01 05:03:06;;;;;;;18.35;11.55;;;-0.80;99.90;;;;;;5037246;28;20105;-76
2022/03/01 05:05:32;;;;;;;19.83;14.18;;;-0.90;99.90;;;;;;5033593;28;20023;-78
2022/03/01 05:07:58;;;;;;;29.30;17.27;;;-0.80;99.90;;;;;;5034550;28;20121;-77
2022/03/01 05:10:24;;;;;;;26.58;13.27;;;-0.80;99.90;;;;;;5029962;28;20044;-76
2022/03/01 05:12:53;;;;;;;27.50;18.35;;;-0.90;99.90;;;;;;5035034;28;20022;-78
2022/03/01 05:15:19;;;;;;;19.15;12.02;;;-0.90;99.90;;;;;;5031803;28;20030;-77
2022/03/01 05:17:46;;;;;;;19.98;11.57;;;-0.90;99.90;;;;;;5034888;28;20018;-76
2022/03/01 05:20:13;;;;;;;17.10;11.10;;;-0.70;99.90;;;;;;5047399;28;20029;-78
2022/03/01 05:22:38;;;;;;;23.30;11.75;;;-0.60;99.90;;;;;;5044941;28;20033;-76
2022/03/01 05:25:06;;;;;;;20.05;12.05;;;-0.60;99.90;;;;;;5047930;28;20057;-76
2022/03/01 05:27:32;;;;;;;20.52;12.27;;;-0.70;99.90;;;;;;5049153;28;20029;-78
2022/03/01 05:29:58;;;;;;;27.45;12.48;;;-0.70;99.90;;;;;;5042383;28;20037;-77
2022/03/01 05:32:23;;;;;;;17.60;12.10;;;-0.80;99.90;;;;;;5038726;28;20044;-77
2022/03/01 05:34:49;;;;;;;19.73;12.48;;;-0.90;99.90;;;;;;5053424;28;20034;-77
2022/03/01 05:37:15;;;;;;;21.35;12.45;;;-0.90;99.90;;;;;;5047419;28;20064;-78
2022/03/01 05:39:40;;;;;;;19.83;11.98;;;-0.90;99.90;;;;;;5034355;28;20017;-76
2022/03/01 05:42:08;;;;;;;22.63;11.68;;;-0.90;99.90;;;;;;5027985;28;20478;-76
2022/03/01 05:44:34;;;;;;;19.20;11.20;;;-0.90;99.90;;;;;;5034500;28;20018;-77
2022/03/01 05:46:59;;;;;;;18.42;12.27;;;-0.90;99.90;;;;;;5033847;28;20040;-78
2022/03/01 05:49:25;;;;;;;20.95;11.20;;;-0.90;99.90;;;;;;5034026;28;20037;-77
2022/03/01 05:51:50;;;;;;;16.90;11.27;;;-0.90;99.90;;;;;;5034283;28;20083;-77
2022/03/01 05:54:16;;;;;;;21.60;12.77;;;-0.90;99.90;;;;;;5033518;28;20052;-77
2022/03/01 05:56:41;;;;;;;18.35;12.30;;;-1.00;99.90;;;;;;5032783;28;20032;-78
2022/03/01 05:59:07;;;;;;;22.48;10.93;;;-1.10;99.90;;;;;;5048980;28;20029;-78
2022/03/01 06:01:33;;;;;;;22.80;11.80;;;-1.20;99.90;;;;;;5033725;28;20028;-77
2022/03/01 06:03:58;;;;;;;15.18;10.10;;;-1.10;99.90;;;;;;5033437;28;20033;-77
2022/03/01 06:06:24;;;;;;;19.73;10.70;;;-1.10;99.90;;;;;;5032723;28;20021;-77
2022/03/01 06:08:50;;;;;;;19.38;11.27;;;-1.10;99.90;;;;;;5032825;28;20080;-77
2022/03/01 06:11:15;;;;;;;20.38;11.40;;;-1.10;99.90;;;;;;5032834;28;20026;-77
2022/03/01 06:13:43;;;;;;;22.92;12.45;;;-0.90;99.90;;;;;;5027950;28;20028;-76
2022/03/01 06:16:09;;;;;;;19.88;11.60;;;-1.00;99.90;;;;;;5032373;28;20116;-77
2022/03/01 06:18:35;;;;;;;23.55;11.88;;;-1.00;99.90;;;;;;5031974;28;20063;-77
2022/03/01 06:21:01;;;;;;;16.52;10.88;;;-1.00;99.90;;;;;;5031777;28;20029;-77
2022/03/01 06:23:28;;;;;;;16.30;11.18;;;-1.00;99.90;;;;;;5033893;28;20501;-77
2022/03/01 06:25:54;;;;;;;15.68;11.02;;;-0.90;99.90;;;;;;5031966;28;20034;-77
2022/03/01 06:28:21;;;;;;;19.60;11.18;;;-0.80;99.90;;;;;;5032097;28;20033;-77
2022/03/01 06:30:47;;;;;;;23.85;12.25;;;-0.80;99.90;;;;;;5025266;28;20068;-78
2022/03/01 06:33:13;;;;;;;18.70;11.50;;;-0.70;99.90;;;;;;5033445;28;20060;-76
2022/03/01 06:35:39;;;;;;;16.65;10.60;;;-0.60;99.90;;;;;;5033304;28;20563;-77
2022/03/01 06:38:04;;;;;;;22.27;11.27;;;-0.60;99.90;;;;;;5033957;28;20030;-77
2022/03/01 06:40:30;;;;;;;17.65;11.75;;;-0.40;99.90;;;;;;5033466;28;20061;-77
2022/03/01 06:42:56;;;;;;;17.05;10.57;;;-0.30;99.90;;;;;;5033132;28;20025;-77
2022/03/01 06:45:22;;;;;;;20.63;10.88;;;-0.20;99.90;;;;;;5032804;28;20095;-77
2022/03/01 06:47:48;;;;;;;19.73;12.18;;;-0.10;99.90;;;;;;5033313;28;20525;-77
2022/03/01 06:50:13;;;;;;;21.13;11.65;;;-0.10;99.90;;;;;;5032773;28;20029;-77
2022/03/01 06:52:39;;;;;;;20.48;9.93;;;0.10;99.90;;;;;;5032802;28;20056;-77
2022/03/01 06:55:07;;;;;;;22.10;12.85;;;0.20;99.90;;;;;;5033072;28;20068;-77
2022/03/01 06:57:33;;;;;;;23.20;11.02;;;0.30;99.90;;;;;;5033521;28;20017;-77
2022/03/01 06:59:58;;;;;;;16.58;10.32;;;0.20;99.90;;;;;;5033320;28;20040;-77
2022/03/01 07:02:28;;;;;;;20.55;11.00;;;0.20;99.90;;;;;;5031464;28;20018;-77
2022/03/01 07:04:57;;;;;;;17.73;11.20;;;0.20;99.90;;;;;;5031766;28;20520;-75
2022/03/01 07:07:23;;;;;;;20.80;11.95;;;0.30;99.90;;;;;;5033471;28;20292;-75
2022/03/01 07:09:49;;;;;;;16.27;11.32;;;0.50;99.90;;;;;;5033822;28;20033;-77
2022/03/01 07:12:15;;;;;;;22.73;11.55;;;0.60;99.90;;;;;;5033367;28;20028;-76
2022/03/01 07:14:40;;;;;;;26.48;12.55;;;0.70;99.90;;;;;;5032632;28;20025;-77
2022/03/01 07:17:06;;;;;;;21.75;12.65;;;0.90;99.90;;;;;;5025359;28;20030;-77
2022/03/01 07:19:32;;;;;;;15.63;9.35;;;1.10;99.90;;;;;;5032623;28;20044;-77
2022/03/01 07:21:58;;;;;;;15.30;11.95;;;1.20;99.90;;;;;;5027365;28;20060;-77
2022/03/01 07:24:23;;;;;;;22.38;13.07;;;1.30;99.90;;;;;;5033557;28;20022;-77
2022/03/01 07:26:49;;;;;;;20.05;11.75;;;1.30;99.90;;;;;;5032872;28;20041;-78
2022/03/01 07:29:15;;;;;;;20.85;12.10;;;1.40;99.90;;;;;;5029861;28;20025;-77
2022/03/01 07:31:41;;;;;;;18.65;11.88;;;1.50;99.90;;;;;;5025764;28;20041;-77
2022/03/01 07:34:07;;;;;;;18.58;11.68;;;1.60;99.90;;;;;;5032939;28;20029;-77
2022/03/01 07:36:33;;;;;;;26.80;12.82;;;1.70;99.90;;;;;;5024338;28;20450;-76
2022/03/01 07:38:58;;;;;;;16.92;11.32;;;1.70;99.90;;;;;;5018975;28;20033;-77
2022/03/01 07:41:24;;;;;;;19.58;11.98;;;1.70;99.90;;;;;;5025706;28;20029;-76
2022/03/01 07:43:49;;;;;;;18.88;12.07;;;1.60;99.90;;;;;;5047963;28;20025;-77
2022/03/01 07:46:15;;;;;;;22.08;11.00;;;1.80;99.90;;;;;;5031473;28;20028;-76
2022/03/01 07:48:42;;;;;;;28.20;12.32;;;1.90;99.90;;;;;;5032003;28;20025;-76
2022/03/01 07:51:08;;;;;;;18.95;11.70;;;1.90;99.90;;;;;;5031500;28;20045;-76
2022/03/01 07:53:34;;;;;;;24.67;13.88;;;1.90;99.90;;;;;;5031417;28;20033;-76
2022/03/01 07:55:59;;;;;;;31.08;13.13;;;1.90;99.90;;;;;;5032008;28;20477;-75
2022/03/01 07:58:26;;;;;;;20.85;12.55;;;2.10;99.90;;;;;;5025444;28;20591;-77
2022/03/01 08:00:52;;;;;;;18.75;10.38;;;2.10;99.90;;;;;;5031296;28;20041;-77
2022/03/01 08:03:17;;;;;;;17.88;10.45;;;2.20;99.00;;;;;;5031535;28;20034;-77
2022/03/01 08:05:44;;;;;;;17.33;10.88;;;2.10;98.90;;;;;;5047297;28;20520;-76
2022/03/01 08:08:11;;;;;;;19.48;11.32;;;2.30;97.50;;;;;;5031967;28;20026;-76
2022/03/01 08:10:36;;;;;;;17.23;10.45;;;2.30;97.20;;;;;;5031878;28;20029;-79
2022/03/01 08:13:02;;;;;;;15.90;10.90;;;2.40;96.90;;;;;;5033077;28;20029;-81
2022/03/01 08:15:28;;;;;;;16.27;10.93;;;2.50;96.30;;;;;;5034053;28;20029;-80
2022/03/01 08:17:55;;;;;;;15.98;10.07;;;2.40;96.40;;;;;;5038981;28;20138;-80
2022/03/01 08:20:22;;;;;;;21.73;11.07;;;2.50;96.00;;;;;;5058925;28;20513;-81
2022/03/01 08:22:48;;;;;;;15.82;10.45;;;2.70;96.00;;;;;;5041312;28;20022;-82
2022/03/01 08:25:15;;;;;;;14.55;9.63;;;2.80;95.30;;;;;;5041788;28;20049;-82
2022/03/01 08:27:41;;;;;;;15.00;9.05;;;3.00;94.50;;;;;;5042234;28;20040;-80
2022/03/01 08:30:07;;;;;;;16.92;9.10;;;3.00;93.80;;;;;;5033671;28;20033;-81
2022/03/01 08:32:34;;;;;;;13.82;9.07;;;2.80;93.80;;;;;;5040741;28;20026;-80
2022/03/01 08:34:59;;;;;;;12.98;8.98;;;2.90;93.60;;;;;;5030749;28;20113;-81
2022/03/01 08:37:26;;;;;;;12.35;8.70;;;3.10;93.20;;;;;;5027927;28;20050;-79
2022/03/01 08:39:52;;;;;;;15.85;10.63;;;3.20;93.50;;;;;;5033309;28;20071;-80
2022/03/01 08:42:18;;;;;;;17.20;10.02;;;3.30;93.10;;;;;;5044655;28;20602;-78
2022/03/01 08:44:44;;;;;;;16.08;9.60;;;3.40;92.20;;;;;;5030582;28;20018;-81
2022/03/01 08:47:10;;;;;;;11.38;8.20;;;3.40;91.80;;;;;;5033695;28;20030;-79
2022/03/01 08:49:35;;;;;;;14.98;10.40;;;3.40;91.30;;;;;;5040567;28;20054;-79
2022/03/01 08:52:01;;;;;;;16.83;10.60;;;3.40;91.30;;;;;;5037460;28;20033;-82
2022/03/01 08:54:26;;;;;;;19.10;10.13;;;3.60;91.40;;;;;;5061696;28;20112;-81
2022/03/01 08:56:52;;;;;;;13.98;9.50;;;3.70;91.60;;;;;;5046042;28;20044;-79
2022/03/01 08:59:25;;;;;;;18.85;11.20;;;3.80;91.50;;;;;;5046244;28;20149;-80
2022/03/01 09:01:51;;;;;;;12.77;9.57;;;3.80;91.20;;;;;;5046356;28;20443;-81
2022/03/01 09:04:16;;;;;;;16.15;9.82;;;3.90;91.10;;;;;;5046564;28;20111;-81
2022/03/01 09:06:42;;;;;;;13.23;9.50;;;3.80;91.30;;;;;;5044028;28;20032;-81
2022/03/01 09:09:08;;;;;;;18.30;10.40;;;4.00;90.10;;;;;;5047457;28;20036;-82
2022/03/01 09:11:34;;;;;;;13.15;9.07;;;4.00;90.00;;;;;;5047581;28;20032;-80
2022/03/01 09:13:59;;;;;;;11.45;8.45;;;4.10;90.00;;;;;;5046497;28;20036;-82
2022/03/01 09:16:25;;;;;;;13.05;9.15;;;4.00;90.00;;;;;;5045802;28;20025;-82
2022/03/01 09:18:50;;;;;;;13.23;8.98;;;4.20;89.30;;;;;;5044988;28;20060;-80
2022/03/01 09:21:16;;;;;;;14.70;10.38;;;4.20;89.40;;;;;;5045843;28;20040;-81
2022/03/01 09:23:42;;;;;;;14.40;9.00;;;4.30;88.00;;;;;;5046184;28;20026;-81
2022/03/01 09:26:08;;;;;;;12.05;9.27;;;4.30;87.50;;;;;;5042486;28;20033;-79
2022/03/01 09:28:34;;;;;;;11.77;8.63;;;4.30;86.90;;;;;;5045383;28;20018;-79
2022/03/01 09:31:00;;;;;;;12.80;9.15;;;4.20;88.60;;;;;;5045004;28;20033;-82
2022/03/01 09:33:26;;;;;;;13.38;8.82;;;4.20;87.90;;;;;;5045659;28;20034;-82
2022/03/01 09:35:52;;;;;;;13.93;9.02;;;4.50;86.50;;;;;;5053532;28;20025;-83
2022/03/01 09:38:17;;;;;;;14.07;8.77;;;4.50;84.80;;;;;;5055885;28;20061;-85
2022/03/01 09:40:47;;;;;;;13.77;8.45;;;4.70;84.90;;;;;;5056639;28;20045;-80
2022/03/01 09:43:13;;;;;;;11.75;8.48;;;4.60;85.30;;;;;;5056538;28;20053;-83
2022/03/01 09:45:39;;;;;;;19.67;9.52;;;4.70;84.60;;;;;;5057383;28;20090;-80
2022/03/01 09:48:04;;;;;;;13.40;10.35;;;4.90;83.40;;;;;;5067529;28;20032;-81
2022/03/01 09:50:31;;;;;;;12.95;8.55;;;4.50;83.10;;;;;;5038220;28;20029;-80
2022/03/01 09:52:59;;;;;;;15.48;9.30;;;4.70;84.60;;;;;;5054502;28;20041;-82
2022/03/01 09:55:25;;;;;;;12.35;9.00;;;4.80;82.90;;;;;;5045164;28;20037;-82
2022/03/01 09:57:51;;;;;;;13.77;9.52;;;5.00;82.10;;;;;;5056164;28;20040;-81
2022/03/01 10:00:17;;;;;;;13.48;9.10;;;5.20;81.00;;;;;;5043255;28;20056;-82
2022/03/01 10:02:44;;;;;;;12.63;8.98;;;5.30;80.10;;;;;;5046567;28;20041;-84
2022/03/01 10:05:11;;;;;;;11.70;8.18;;;5.30;78.80;;;;;;5040800;28;20022;-81
2022/03/01 10:07:42;;;;;;;11.57;7.65;;;5.10;78.90;;;;;;5050526;28;20022;-80
2022/03/01 10:10:16;;;;;;;12.73;9.20;;;5.40;77.70;;;;;;5030244;28;20029;-82
2022/03/01 10:12:52;;;;;;;12.30;8.48;;;5.60;76.40;;;;;;5043017;28;20025;-82
2022/03/01 10:15:18;;;;;;;10.63;9.45;;;5.50;77.40;;;;;;5035609;28;20034;-80
2022/03/01 10:17:46;;;;;;;12.35;8.25;;;5.60;76.30;;;;;;5041726;28;20014;-81
2022/03/01 10:20:14;;;;;;;9.13;7.60;;;5.60;76.20;;;;;;5042524;28;20060;-81
2022/03/01 10:22:50;;;;;;;9.73;8.73;;;5.50;76.20;;;;;;5046934;28;20060;-82
2022/03/01 10:25:18;;;;;;;10.38;7.47;;;5.40;77.40;;;;;;5055055;28;20040;-83
2022/03/01 10:27:48;;;;;;;12.73;8.20;;;5.70;76.20;;;;;;5057477;28;20054;-83
2022/03/01 10:30:27;;;;;;;12.55;7.60;;;5.80;74.50;;;;;;5046777;28;20036;-84
2022/03/01 10:33:06;;;;;;;10.77;7.05;;;5.70;74.80;;;;;;5040705;28;20063;-82
2022/03/01 10:35:32;;;;;;;9.68;7.85;;;5.60;74.90;;;;;;5039343;28;20041;-81
2022/03/01 10:38:01;;;;;;;10.45;7.93;;;5.90;74.30;;;;;;5043466;28;20052;-81
2022/03/01 10:40:27;;;;;;;9.93;7.40;;;6.10;73.80;;;;;;5047757;28;20053;-81
2022/03/01 10:43:10;;;;;;;10.68;7.68;;;6.20;71.70;;;;;;5051223;28;20029;-82
2022/03/01 10:45:37;;;;;;;9.20;6.80;;;6.40;71.50;;;;;;5047118;28;20100;-80
2022/03/01 10:48:05;;;;;;;9.43;6.97;;;6.50;71.30;;;;;;5045539;28;20087;-81
2022/03/01 10:50:30;;;;;;;12.00;7.28;;;6.50;71.40;;;;;;5040416;28;20022;-81
2022/03/01 10:52:56;;;;;;;11.60;7.32;;;6.30;72.00;;;;;;5055005;28;20041;-79
2022/03/01 10:55:24;;;;;;;9.65;7.88;;;6.30;72.10;;;;;;5044270;28;20025;-80
2022/03/01 10:58:16;;;;;;;13.52;7.03;;;6.30;71.70;;;;;;5039228;28;20018;-81
2022/03/01 11:00:42;;;;;;;12.05;7.72;;;6.40;71.20;;;;;;5051114;28;20033;-81
2022/03/01 11:03:08;;;;;;;9.60;6.70;;;6.40;70.50;;;;;;5061662;28;20049;-83
2022/03/01 11:05:35;;;;;;;9.90;6.88;;;6.50;71.20;;;;;;5050562;28;20048;-84
2022/03/01 11:08:08;;;;;;;8.98;7.88;;;6.80;69.20;;;;;;5058248;28;20017;-85
2022/03/01 11:10:36;;;;;;;10.60;8.50;;;6.70;69.50;;;;;;5053747;28;20028;-83
2022/03/01 11:13:05;;;;;;;14.05;8.10;;;6.80;69.00;;;;;;5062360;28;20187;-83
2022/03/01 11:16:07;;;;;;;11.80;7.55;;;6.80;69.50;;;;;;5039955;28;20112;-82
2022/03/01 11:18:52;;;;;;;10.43;7.30;;;6.70;68.10;;;;;;5038574;28;20027;-78
2022/03/01 11:21:21;;;;;;;8.75;6.88;;;7.10;67.00;;;;;;5041316;28;20653;-81
2022/03/01 11:23:49;;;;;;;9.27;7.47;;;7.10;65.70;;;;;;5044213;28;20041;-80
2022/03/01 11:26:16;;;;;;;7.68;6.85;;;7.10;65.30;;;;;;5044037;28;20013;-79
2022/03/01 11:28:56;;;;;;;7.60;6.60;;;7.10;65.50;;;;;;5040534;28;20021;-80
2022/03/01 11:31:23;;;;;;;8.27;7.00;;;7.00;64.80;;;;;;5042204;28;20022;-80
2022/03/01 11:33:56;;;;;;;10.35;7.30;;;7.00;64.60;;;;;;5036536;28;20481;-80
2022/03/01 11:36:23;;;;;;;9.48;6.70;;;7.10;64.60;;;;;;5031495;28;20370;-79
2022/03/01 11:38:51;;;;;;;8.75;6.72;;;7.10;64.00;;;;;;5033690;28;20056;-79
2022/03/01 11:41:22;;;;;;;8.48;6.20;;;7.40;63.00;;;;;;5042838;28;20056;-81
2022/03/01 11:43:57;;;;;;;11.43;6.78;;;7.70;63.30;;;;;;5044734;28;20018;-79
2022/03/01 11:46:23;;;;;;;9.52;7.85;;;7.90;62.40;;;;;;5045129;28;20021;-81
2022/03/01 11:48:54;;;;;;;8.52;6.05;;;7.80;63.00;;;;;;5044539;28;20018;-80
2022/03/01 11:51:46;;;;;;;10.30;7.07;;;8.00;60.70;;;;;;5043787;28;20033;-81
2022/03/01 11:54:17;;;;;;;7.53;6.38;;;7.90;60.30;;;;;;5046388;28;20036;-82
2022/03/01 11:56:43;;;;;;;9.23;7.65;;;7.80;60.40;;;;;;5057188;28;20116;-81
2022/03/01 11:59:11;;;;;;;11.38;7.47;;;7.70;61.40;;;;;;5063010;28;20053;-81
2022/03/01 12:01:38;;;;;;;11.63;6.60;;;7.40;62.00;;;;;;5044349;28;20048;-81
2022/03/01 12:04:06;;;;;;;10.20;7.90;;;7.90;61.30;;;;;;5045494;28;20026;-82
2022/03/01 12:06:38;;;;;;;9.63;6.55;;;8.00;60.20;;;;;;5044686;28;20041;-80
2022/03/01 12:09:06;;;;;;;9.32;7.28;;;8.10;59.70;;;;;;5043943;28;20031;-82
2022/03/01 12:11:38;;;;;;;8.43;6.88;;;8.30;59.40;;;;;;5045324;28;20533;-81
2022/03/01 12:14:10;;;;;;;8.25;7.00;;;7.90;59.80;;;;;;5040397;28;20036;-81
2022/03/01 12:16:36;;;;;;;;;;;7.70;59.80;;;;;;5041957;28;20056;-81
2022/03/01 12:19:15;;;;;;;8.40;6.85;;;7.80;60.50;;;;;;5041424;28;20020;-79
2022/03/01 12:21:49;;;;;;;9.75;7.03;;;8.20;59.40;;;;;;5042043;28;20026;-80
2022/03/01 12:24:15;;;;;;;9.18;6.80;;;8.40;59.10;;;;;;5041239;28;20089;-80
2022/03/01 12:26:44;;;;;;;9.80;7.25;;;8.30;59.10;;;;;;5042657;28;20025;-80
2022/03/01 12:29:11;;;;;;;8.23;6.90;;;8.40;59.30;;;;;;5047345;28;20018;-79
2022/03/01 12:31:37;;;;;;;9.90;7.53;;;8.30;59.00;;;;;;5045378;28;20037;-81
2022/03/01 12:34:06;;;;;;;9.48;6.43;;;8.30;59.00;;;;;;5038224;28;20029;-80
2022/03/01 12:36:35;;;;;;;7.32;6.30;;;8.50;58.60;;;;;;5040626;28;20033;-82
2022/03/01 12:39:13;;;;;;;7.10;6.20;;;8.80;57.50;;;;;;5037316;28;20037;-79